sensor_id;sensor_type;location;lat;lon;timestamp;P1;durP1;ratioP1;P2;durP2;ratioP2
44358;SDS011;30077;52.474;13.326;2023-12-20T00:07:00;10.03;;;7.33;;
44358;SDS011;30077;52.474;13.326;2023-12-20T00:17:01;11.23;;;7.85;;
44358;SDS011;30077;52.474;13.326;2023-12-20T00:27:02;11.87;;;6.63;;
44358;SDS011;30077;52.474;13.326;2023-12-20T00:37:02;9.30;;;6.65;;
44358;SDS011;30077;52.474;13.326;2023-12-20T00:47:03;7.88;;;6.43;;
44358;SDS011;30077;52.474;13.326;2023-12-20T00:57:04;8.57;;;6.28;;
44358;SDS011;30077;52.474;13.326;2023-12-20T01:07:05;8.67;;;6.40;;
44358;SDS011;30077;52.474;13.326;2023-12-20T01:17:06;12.10;;;7.60;;
44358;SDS011;30077;52.474;13.326;2023-12-20T01:27:07;10.18;;;6.63;;
44358;SDS011;30077;52.474;13.326;2023-12-20T01:37:08;7.25;;;5.13;;
44358;SDS011;30077;52.474;13.326;2023-12-20T01:47:09;8.40;;;5.88;;
44358;SDS011;30077;52.474;13.326;2023-12-20T01:57:10;7.15;;;5.35;;
44358;SDS011;30077;52.474;13.326;2023-12-20T02:07:11;8.88;;;6.45;;
44358;SDS011;30077;52.474;13.326;2023-12-20T02:17:12;9.55;;;7.05;;
44358;SDS011;30077;52.474;13.326;2023-12-20T02:27:12;10.68;;;7.82;;
44358;SDS011;30077;52.474;13.326;2023-12-20T02:37:15;11.40;;;7.95;;
44358;SDS011;30077;52.474;13.326;2023-12-20T02:47:17;14.25;;;8.73;;
44358;SDS011;30077;52.474;13.326;2023-12-20T02:57:17;12.97;;;8.77;;
44358;SDS011;30077;52.474;13.326;2023-12-20T03:07:18;13.18;;;8.20;;
44358;SDS011;30077;52.474;13.326;2023-12-20T03:17:19;11.13;;;6.87;;
44358;SDS011;30077;52.474;13.326;2023-12-20T03:27:20;11.90;;;6.50;;
44358;SDS011;30077;52.474;13.326;2023-12-20T03:37:21;14.00;;;6.10;;
44358;SDS011;30077;52.474;13.326;2023-12-20T03:47:22;7.07;;;5.13;;
44358;SDS011;30077;52.474;13.326;2023-12-20T03:57:23;11.10;;;3.70;;
44358;SDS011;30077;52.474;13.326;2023-12-20T04:07:23;13.10;;;3.93;;
44358;SDS011;30077;52.474;13.326;2023-12-20T04:17:24;12.27;;;3.80;;
44358;SDS011;30077;52.474;13.326;2023-12-20T04:27:25;14.63;;;3.37;;
44358;SDS011;30077;52.474;13.326;2023-12-20T04:37:25;15.00;;;3.30;;
44358;SDS011;30077;52.474;13.326;2023-12-20T04:47:26;16.37;;;3.80;;
44358;SDS011;30077;52.474;13.326;2023-12-20T04:57:27;12.10;;;3.67;;
44358;SDS011;30077;52.474;13.326;2023-12-20T05:07:27;10.73;;;3.10;;
44358;SDS011;30077;52.474;13.326;2023-12-20T05:17:28;19.83;;;3.03;;
44358;SDS011;30077;52.474;13.326;2023-12-20T05:27:29;9.00;;;2.37;;
44358;SDS011;30077;52.474;13.326;2023-12-20T05:37:29;14.98;;;3.28;;
44358;SDS011;30077;52.474;13.326;2023-12-20T05:47:30;11.70;;;3.00;;
44358;SDS011;30077;52.474;13.326;2023-12-20T05:57:30;14.23;;;3.00;;
44358;SDS011;30077;52.474;13.326;2023-12-20T06:07:31;10.63;;;2.93;;
44358;SDS011;30077;52.474;13.326;2023-12-20T06:17:32;9.23;;;2.90;;
44358;SDS011;30077;52.474;13.326;2023-12-20T06:27:32;18.92;;;3.00;;
44358;SDS011;30077;52.474;13.326;2023-12-20T06:37:33;12.77;;;3.50;;
44358;SDS011;30077;52.474;13.326;2023-12-20T06:47:34;17.63;;;3.13;;
44358;SDS011;30077;52.474;13.326;2023-12-20T06:57:35;8.93;;;2.88;;
44358;SDS011;30077;52.474;13.326;2023-12-20T07:07:36;10.30;;;2.60;;
44358;SDS011;30077;52.474;13.326;2023-12-20T07:17:37;14.52;;;3.55;;
44358;SDS011;30077;52.474;13.326;2023-12-20T07:27:37;9.05;;;3.60;;
44358;SDS011;30077;52.474;13.326;2023-12-20T07:37:38;16.57;;;3.43;;
44358;SDS011;30077;52.474;13.326;2023-12-20T07:47:39;11.37;;;2.90;;
44358;SDS011;30077;52.474;13.326;2023-12-20T07:57:40;13.07;;;3.35;;
44358;SDS011;30077;52.474;13.326;2023-12-20T08:07:41;12.68;;;3.88;;
44358;SDS011;30077;52.474;13.326;2023-12-20T08:17:42;8.87;;;3.33;;
44358;SDS011;30077;52.474;13.326;2023-12-20T08:27:42;11.60;;;3.13;;
44358;SDS011;30077;52.474;13.326;2023-12-20T08:37:43;12.23;;;3.10;;
44358;SDS011;30077;52.474;13.326;2023-12-20T08:47:44;12.48;;;3.88;;
44358;SDS011;30077;52.474;13.326;2023-12-20T08:57:45;10.73;;;3.17;;
44358;SDS011;30077;52.474;13.326;2023-12-20T09:07:45;16.13;;;3.08;;
44358;SDS011;30077;52.474;13.326;2023-12-20T09:17:46;9.43;;;3.97;;
44358;SDS011;30077;52.474;13.326;2023-12-20T09:27:47;14.40;;;3.10;;
44358;SDS011;30077;52.474;13.326;2023-12-20T09:37:47;10.07;;;2.70;;
44358;SDS011;30077;52.474;13.326;2023-12-20T09:47:53;15.77;;;3.90;;
44358;SDS011;30077;52.474;13.326;2023-12-20T09:57:56;15.23;;;3.22;;
44358;SDS011;30077;52.474;13.326;2023-12-20T10:07:57;14.48;;;4.32;;
44358;SDS011;30077;52.474;13.326;2023-12-20T10:17:59;9.65;;;3.38;;
44358;SDS011;30077;52.474;13.326;2023-12-20T10:28:14;16.05;;;2.97;;
44358;SDS011;30077;52.474;13.326;2023-12-20T10:38:21;11.93;;;4.75;;
44358;SDS011;30077;52.474;13.326;2023-12-20T10:48:22;13.95;;;2.92;;
44358;SDS011;30077;52.474;13.326;2023-12-20T10:58:28;16.05;;;3.92;;
44358;SDS011;30077;52.474;13.326;2023-12-20T11:08:38;18.55;;;4.07;;
44358;SDS011;30077;52.474;13.326;2023-12-20T11:18:53;18.70;;;3.85;;
44358;SDS011;30077;52.474;13.326;2023-12-20T11:28:54;15.05;;;4.43;;
44358;SDS011;30077;52.474;13.326;2023-12-20T11:39:30;12.15;;;3.22;;
44358;SDS011;30077;52.474;13.326;2023-12-20T11:49:31;11.88;;;3.65;;
44358;SDS011;30077;52.474;13.326;2023-12-20T11:59:32;19.33;;;7.28;;
44358;SDS011;30077;52.474;13.326;2023-12-20T12:09:33;14.48;;;3.35;;
44358;SDS011;30077;52.474;13.326;2023-12-20T12:19:35;11.32;;;3.30;;
44358;SDS011;30077;52.474;13.326;2023-12-20T12:29:37;9.25;;;3.35;;
44358;SDS011;30077;52.474;13.326;2023-12-20T12:39:38;12.38;;;2.80;;
44358;SDS011;30077;52.474;13.326;2023-12-20T12:49:40;12.98;;;4.00;;
44358;SDS011;30077;52.474;13.326;2023-12-20T12:59:42;10.77;;;3.47;;
44358;SDS011;30077;52.474;13.326;2023-12-20T13:09:46;15.33;;;4.00;;
44358;SDS011;30077;52.474;13.326;2023-12-20T13:19:46;7.55;;;3.50;;
44358;SDS011;30077;52.474;13.326;2023-12-20T13:29:47;18.37;;;5.23;;
44358;SDS011;30077;52.474;13.326;2023-12-20T13:39:48;6.10;;;2.33;;
44358;SDS011;30077;52.474;13.326;2023-12-20T13:49:48;6.43;;;2.22;;
44358;SDS011;30077;52.474;13.326;2023-12-20T13:59:49;6.20;;;2.83;;
44358;SDS011;30077;52.474;13.326;2023-12-20T14:09:51;8.07;;;1.80;;
44358;SDS011;30077;52.474;13.326;2023-12-20T14:19:52;4.17;;;1.10;;
44358;SDS011;30077;52.474;13.326;2023-12-20T14:29:54;4.90;;;0.90;;
44358;SDS011;30077;52.474;13.326;2023-12-20T14:39:55;3.40;;;1.55;;
44358;SDS011;30077;52.474;13.326;2023-12-20T14:49:55;5.53;;;1.93;;
44358;SDS011;30077;52.474;13.326;2023-12-20T14:59:56;5.40;;;1.40;;
44358;SDS011;30077;52.474;13.326;2023-12-20T15:09:57;5.80;;;2.33;;
44358;SDS011;30077;52.474;13.326;2023-12-20T15:19:58;6.75;;;2.10;;
44358;SDS011;30077;52.474;13.326;2023-12-20T15:29:59;7.20;;;1.53;;
44358;SDS011;30077;52.474;13.326;2023-12-20T15:39:59;13.02;;;2.38;;
44358;SDS011;30077;52.474;13.326;2023-12-20T15:50:00;5.03;;;1.42;;
44358;SDS011;30077;52.474;13.326;2023-12-20T16:00:01;11.05;;;1.85;;
44358;SDS011;30077;52.474;13.326;2023-12-20T16:10:02;6.32;;;1.58;;
44358;SDS011;30077;52.474;13.326;2023-12-20T16:20:04;9.27;;;2.10;;
44358;SDS011;30077;52.474;13.326;2023-12-20T16:30:06;17.17;;;2.85;;
44358;SDS011;30077;52.474;13.326;2023-12-20T16:40:07;13.68;;;2.60;;
44358;SDS011;30077;52.474;13.326;2023-12-20T16:50:08;12.02;;;2.15;;
44358;SDS011;30077;52.474;13.326;2023-12-20T17:00:09;10.80;;;3.00;;
44358;SDS011;30077;52.474;13.326;2023-12-20T17:10:10;9.32;;;2.88;;
44358;SDS011;30077;52.474;13.326;2023-12-20T17:20:11;11.43;;;3.25;;
44358;SDS011;30077;52.474;13.326;2023-12-20T17:30:12;17.85;;;4.30;;
44358;SDS011;30077;52.474;13.326;2023-12-20T17:40:13;17.33;;;3.97;;
44358;SDS011;30077;52.474;13.326;2023-12-20T17:50:14;12.02;;;3.00;;
44358;SDS011;30077;52.474;13.326;2023-12-20T18:00:16;15.20;;;3.30;;
44358;SDS011;30077;52.474;13.326;2023-12-20T18:10:19;12.67;;;3.27;;
44358;SDS011;30077;52.474;13.326;2023-12-20T18:20:20;12.05;;;2.67;;
44358;SDS011;30077;52.474;13.326;2023-12-20T18:30:21;17.25;;;2.78;;
44358;SDS011;30077;52.474;13.326;2023-12-20T18:40:21;21.50;;;3.73;;
44358;SDS011;30077;52.474;13.326;2023-12-20T19:00:27;14.15;;;3.50;;
44358;SDS011;30077;52.474;13.326;2023-12-20T19:10:28;15.60;;;3.30;;
44358;SDS011;30077;52.474;13.326;2023-12-20T19:20:28;9.67;;;2.87;;
44358;SDS011;30077;52.474;13.326;2023-12-20T19:30:29;12.02;;;2.75;;
44358;SDS011;30077;52.474;13.326;2023-12-20T19:40:30;11.33;;;3.10;;
44358;SDS011;30077;52.474;13.326;2023-12-20T19:50:30;14.50;;;3.50;;
44358;SDS011;30077;52.474;13.326;2023-12-20T20:00:31;15.70;;;5.20;;
44358;SDS011;30077;52.474;13.326;2023-12-20T20:10:32;14.52;;;3.80;;
44358;SDS011;30077;52.474;13.326;2023-12-20T20:20:33;15.45;;;2.63;;
44358;SDS011;30077;52.474;13.326;2023-12-20T20:30:33;14.98;;;2.47;;
44358;SDS011;30077;52.474;13.326;2023-12-20T20:40:34;8.02;;;1.90;;
44358;SDS011;30077;52.474;13.326;2023-12-20T20:50:36;9.27;;;2.35;;
44358;SDS011;30077;52.474;13.326;2023-12-20T21:00:37;6.78;;;1.70;;
44358;SDS011;30077;52.474;13.326;2023-12-20T21:10:40;9.17;;;2.10;;
44358;SDS011;30077;52.474;13.326;2023-12-20T21:20:43;7.90;;;2.17;;
44358;SDS011;30077;52.474;13.326;2023-12-20T21:30:44;7.00;;;1.80;;
44358;SDS011;30077;52.474;13.326;2023-12-20T21:40:46;8.77;;;2.40;;
44358;SDS011;30077;52.474;13.326;2023-12-20T21:50:48;10.48;;;2.42;;
44358;SDS011;30077;52.474;13.326;2023-12-20T22:00:49;7.75;;;3.30;;
44358;SDS011;30077;52.474;13.326;2023-12-20T22:10:49;4.40;;;1.65;;
44358;SDS011;30077;52.474;13.326;2023-12-20T22:20:50;5.03;;;1.73;;
44358;SDS011;30077;52.474;13.326;2023-12-20T22:30:52;6.72;;;1.90;;
44358;SDS011;30077;52.474;13.326;2023-12-20T22:40:53;4.50;;;2.23;;
44358;SDS011;30077;52.474;13.326;2023-12-20T22:50:53;3.95;;;1.83;;
44358;SDS011;30077;52.474;13.326;2023-12-20T23:00:54;9.18;;;2.05;;
44358;SDS011;30077;52.474;13.326;2023-12-20T23:10:55;7.72;;;2.60;;
44358;SDS011;30077;52.474;13.326;2023-12-20T23:20:56;6.97;;;2.58;;
44358;SDS011;30077;52.474;13.326;2023-12-20T23:30:57;7.32;;;3.63;;
44358;SDS011;30077;52.474;13.326;2023-12-20T23:40:57;6.63;;;3.20;;
44358;SDS011;30077;52.474;13.326;2023-12-20T23:50:58;8.07;;;4.30;;
